Terminal Aerodrome Forecast
Issued by NWS North Platte, NE

Home | Current Version | Previous Version | Text Only | Print | Product List | Glossary On
Versions: 1 2 3 4 5 6 7 8 9 10 11 12 13
000
FTUS43 KLBF 230911 AAA
TAFVTN
TAF AMD
KVTN 230911Z 2309/2406 24005KT P6SM FEW150
     FM231400 22004KT P6SM BKN120
     FM231700 17010KT P6SM BKN120
     FM231900 17014G20KT P6SM BKN120
     FM232300 15010KT P6SM OVC100
     FM240400 13010KT P6SM OVC020=

USA.gov is the U.S. government's official web portal to all federal, state and local government web resources and services.